Time;durP1;ratioP1;P1;durP2;ratioP2;P2;SDS_P1;SDS_P2;PMS_P1;PMS_P2;Temp;Humidity;BMP_temperature;BMP_pressure;BME280_temperature;BME280_humidity;BME280_pressure;Samples;Min_cycle;Max_cycle;Signal;HPM_P1;HPM_P2
2022/08/11 00:00:44;;;;;;;3.50;2.85;;;19.20;99.90;;;;;;5097292;28;20052;-80
2022/08/11 00:03:12;;;;;;;4.90;3.10;;;19.10;99.90;;;;;;5115232;28;20130;-80
2022/08/11 00:05:47;;;;;;;5.45;3.30;;;19.10;99.90;;;;;;5115263;28;20096;-80
2022/08/11 00:08:31;;;;;;;5.10;2.78;;;19.10;99.90;;;;;;5097023;28;20130;-82
2022/08/11 00:11:03;;;;;;;4.68;3.10;;;19.00;99.90;;;;;;5115144;28;20043;-82
2022/08/11 00:13:55;;;;;;;3.65;3.05;;;19.10;99.90;;;;;;5097173;28;20403;-82
2022/08/11 00:16:23;;;;;;;3.75;2.70;;;19.00;99.90;;;;;;5112898;28;20055;-85
2022/08/11 00:18:54;;;;;;;3.95;2.83;;;19.00;99.90;;;;;;5113632;28;20502;-85
2022/08/11 00:21:22;;;;;;;5.05;2.85;;;18.90;99.90;;;;;;5097064;28;20055;-81
2022/08/11 00:24:00;;;;;;;4.22;3.03;;;19.00;99.90;;;;;;5097316;28;20072;-83
2022/08/11 00:26:27;;;;;;;4.93;2.90;;;18.80;99.90;;;;;;5113526;28;20043;-80
2022/08/11 00:28:55;;;;;;;4.45;3.00;;;18.80;99.90;;;;;;5114857;28;20427;-81
2022/08/11 00:31:23;;;;;;;6.88;2.55;;;18.80;99.90;;;;;;5114365;28;20043;-83
2022/08/11 00:33:51;;;;;;;4.93;2.83;;;18.80;99.90;;;;;;5114675;28;20488;-80
2022/08/11 00:36:19;;;;;;;4.88;2.50;;;18.80;99.90;;;;;;5114372;28;20047;-83
2022/08/11 00:38:50;;;;;;;5.10;2.92;;;18.90;99.90;;;;;;5113718;28;20429;-80
2022/08/11 00:41:34;;;;;;;4.15;2.63;;;18.70;99.90;;;;;;5114703;28;20118;-81
2022/08/11 00:44:11;;;;;;;5.97;3.10;;;18.70;99.90;;;;;;5115004;28;20044;-80
2022/08/11 00:47:05;;;;;;;6.88;3.40;;;18.60;99.90;;;;;;5114019;28;20044;-83
2022/08/11 00:49:33;;;;;;;4.10;3.45;;;18.60;99.90;;;;;;5114370;28;20043;-80
2022/08/11 00:52:09;;;;;;;3.88;2.67;;;18.50;99.90;;;;;;5114264;28;20490;-84
2022/08/11 00:54:37;;;;;;;4.45;3.13;;;18.50;99.90;;;;;;5113417;28;20048;-84
2022/08/11 00:57:15;;;;;;;4.40;3.00;;;18.50;99.90;;;;;;5114365;28;20043;-80
2022/08/11 01:00:03;;;;;;;5.88;3.45;;;18.40;99.90;;;;;;5114232;28;20055;-80
2022/08/11 01:02:43;;;;;;;5.25;3.47;;;18.30;99.90;;;;;;5114131;28;20079;-82
2022/08/11 01:05:27;;;;;;;4.43;3.92;;;18.30;99.90;;;;;;5113680;28;20142;-82
2022/08/11 01:08:30;;;;;;;5.93;3.72;;;18.30;99.90;;;;;;5113293;28;20040;-80
2022/08/11 01:11:38;;;;;;;4.55;3.97;;;18.20;99.90;;;;;;5113969;28;20055;-82
2022/08/11 01:14:45;;;;;;;8.23;4.50;;;18.20;99.90;;;;;;5084173;28;20047;-81
2022/08/11 01:17:34;;;;;;;6.72;4.00;;;18.20;99.90;;;;;;5075028;28;20048;-82
2022/08/11 01:20:14;;;;;;;6.40;4.18;;;18.10;99.90;;;;;;5114068;28;20043;-84
2022/08/11 01:22:51;;;;;;;7.38;4.32;;;18.00;99.90;;;;;;5113779;28;20039;-82
2022/08/11 01:25:43;;;;;;;;;;;18.00;99.90;;;;;;5113393;28;20368;-80
2022/08/11 01:28:47;;;;;;;5.13;4.10;;;18.00;99.90;;;;;;5113414;28;20014;-83
2022/08/11 01:31:44;;;;;;;8.02;4.10;;;18.00;99.90;;;;;;5112824;28;20044;-81
2022/08/11 01:34:13;;;;;;;6.07;4.43;;;17.90;99.90;;;;;;5113729;28;20040;-80
2022/08/11 01:36:49;;;;;;;5.22;4.32;;;17.90;99.90;;;;;;5112884;28;20285;-83
2022/08/11 01:39:48;;;;;;;5.80;4.60;;;17.80;99.90;;;;;;5112742;28;20537;-83
2022/08/11 01:45:47;;;;;;;7.45;4.68;;;17.80;99.90;;;;;;5112859;28;20044;-83
2022/08/11 01:48:25;;;;;;;7.15;4.82;;;17.70;99.90;;;;;;5104412;28;20055;-83
2022/08/11 01:50:53;;;;;;;9.32;5.15;;;17.70;99.90;;;;;;5114356;28;20495;-80
2022/08/11 01:53:56;;;;;;;4.80;4.30;;;17.60;99.90;;;;;;5113899;28;20059;-83
2022/08/11 01:56:34;;;;;;;5.28;4.63;;;17.60;99.90;;;;;;5112589;28;20040;-82
2022/08/11 01:59:17;;;;;;;7.18;4.82;;;17.50;99.90;;;;;;5113865;28;20122;-83
2022/08/11 02:02:10;;;;;;;5.43;4.50;;;17.60;99.90;;;;;;5116506;28;20422;-84
2022/08/11 02:05:02;;;;;;;6.47;4.25;;;17.50;99.90;;;;;;5116484;28;20032;-81
2022/08/11 02:08:02;;;;;;;7.70;4.50;;;17.40;99.90;;;;;;5118056;28;20086;-84
2022/08/11 02:14:10;;;;;;;6.32;4.40;;;17.40;99.90;;;;;;5116366;28;20055;-82
2022/08/11 02:16:41;;;;;;;6.80;4.88;;;17.40;99.90;;;;;;5082132;28;20063;-83
2022/08/11 02:25:49;;;;;;;6.38;4.72;;;17.30;99.90;;;;;;5117201;28;20047;-82
2022/08/11 02:28:37;;;;;;;6.20;4.53;;;17.20;99.90;;;;;;5117157;28;20120;-82
2022/08/11 02:34:38;;;;;;;7.35;5.10;;;17.30;99.90;;;;;;5117065;28;20067;-83
2022/08/11 02:37:30;;;;;;;7.63;5.43;;;17.20;99.90;;;;;;5115866;28;20053;-85
2022/08/11 02:40:11;;;;;;;6.20;5.05;;;17.20;99.90;;;;;;5117156;28;20079;-81
2022/08/11 02:42:58;;;;;;;6.35;5.50;;;17.20;99.90;;;;;;5116861;28;20417;-82
2022/08/11 02:45:38;;;;;;;7.55;5.50;;;17.10;99.90;;;;;;5116894;28;20040;-83
2022/08/11 02:51:16;;;;;;;8.40;5.30;;;17.10;99.90;;;;;;5115840;28;20047;-84
2022/08/11 02:54:11;;;;;;;7.43;6.30;;;17.10;99.90;;;;;;5116481;28;20076;-82
2022/08/11 02:56:55;;;;;;;6.47;5.88;;;17.10;99.90;;;;;;5113249;28;20530;-82
2022/08/11 02:59:51;;;;;;;7.57;6.45;;;17.00;99.90;;;;;;5116586;28;20384;-84
2022/08/11 03:02:42;;;;;;;9.00;6.78;;;17.00;99.90;;;;;;5116413;28;20054;-84
2022/08/11 03:05:16;;;;;;;6.63;5.93;;;17.00;99.90;;;;;;5116378;28;20058;-83
2022/08/11 03:08:09;;;;;;;8.65;6.43;;;17.00;99.90;;;;;;5115489;28;20093;-85
2022/08/11 03:17:12;;;;;;;7.82;5.43;;;16.90;99.90;;;;;;5116611;28;20060;-82
2022/08/11 03:19:40;;;;;;;6.10;5.50;;;16.90;99.90;;;;;;5116158;28;20044;-84
2022/08/11 03:22:25;;;;;;;5.93;5.22;;;16.90;99.90;;;;;;5115100;28;20044;-83
2022/08/11 03:25:21;;;;;;;8.05;6.97;;;16.80;99.90;;;;;;5116116;28;20050;-84
2022/08/11 03:27:59;;;;;;;7.50;6.00;;;16.80;99.90;;;;;;5115477;28;20404;-81
2022/08/11 03:30:28;;;;;;;7.25;5.93;;;16.80;99.90;;;;;;5115779;28;20183;-84
2022/08/11 03:36:45;;;;;;;8.50;6.00;;;16.80;99.90;;;;;;5072708;28;20048;-85
2022/08/11 03:39:48;;;;;;;8.40;6.20;;;16.80;99.90;;;;;;5056239;28;20049;-82
2022/08/11 03:42:42;;;;;;;7.78;6.68;;;16.80;99.90;;;;;;5116168;28;20063;-80
2022/08/11 03:45:19;;;;;;;6.78;5.95;;;16.80;99.90;;;;;;5097901;28;20138;-82
2022/08/11 03:48:13;;;;;;;6.65;5.47;;;16.70;99.90;;;;;;5114588;28;20044;-84
2022/08/11 03:50:54;;;;;;;7.40;6.35;;;16.70;99.90;;;;;;5115576;28;20047;-83
2022/08/11 03:53:26;;;;;;;9.68;6.20;;;16.70;99.90;;;;;;5097298;28;20047;-85
2022/08/11 03:56:22;;;;;;;7.15;6.22;;;16.60;99.90;;;;;;5113983;28;20047;-82
2022/08/11 03:59:06;;;;;;;6.90;5.85;;;16.60;99.90;;;;;;5097532;28;20047;-80
2022/08/11 04:01:53;;;;;;;7.57;6.53;;;16.70;99.90;;;;;;5114479;28;20441;-82
2022/08/11 04:04:58;;;;;;;7.68;5.65;;;16.60;99.90;;;;;;5114084;28;20130;-86
2022/08/11 04:07:42;;;;;;;6.78;5.88;;;16.60;99.90;;;;;;5115497;28;20048;-81
2022/08/11 04:10:35;;;;;;;7.13;6.18;;;16.60;99.90;;;;;;5114336;28;20082;-82
2022/08/11 04:13:38;;;;;;;8.00;6.80;;;16.60;99.90;;;;;;5097396;28;20075;-83
2022/08/11 04:16:22;;;;;;;7.60;6.45;;;16.60;99.90;;;;;;5114363;28;20067;-81
2022/08/11 04:19:20;;;;;;;7.78;5.75;;;16.50;99.90;;;;;;5115098;28;20039;-82
2022/08/11 04:22:10;;;;;;;9.40;6.13;;;16.50;99.90;;;;;;5097264;28;20092;-83
2022/08/11 04:25:06;;;;;;;6.03;5.25;;;16.50;99.90;;;;;;5096535;28;20070;-82
2022/08/11 04:27:45;;;;;;;6.28;5.63;;;16.50;99.90;;;;;;5114459;28;20047;-81
2022/08/11 04:30:27;;;;;;;7.38;6.50;;;16.60;99.90;;;;;;5097041;28;20044;-84
2022/08/11 04:33:01;;;;;;;7.13;6.03;;;16.60;99.90;;;;;;5113649;28;20066;-85
2022/08/11 04:35:51;;;;;;;6.60;5.90;;;16.60;99.90;;;;;;5096230;28;20252;-84
2022/08/11 04:38:57;;;;;;;6.60;5.93;;;16.60;99.90;;;;;;5113409;28;20054;-82
2022/08/11 04:43:19;;;;;;;8.65;5.60;;;16.60;99.90;;;;;;5096719;28;20138;-84
2022/08/11 04:44:49;;;;;;;9.35;6.00;;;16.60;99.90;;;;;;5113727;28;20074;-83
2022/08/11 05:02:47;;;;;;;9.13;5.97;;;16.60;99.90;;;;;;5114179;28;20126;-83
2022/08/11 05:05:31;;;;;;;;;;;16.60;99.90;;;;;;5113619;28;20806;-79
2022/08/11 05:08:26;;;;;;;7.90;5.70;;;16.60;99.90;;;;;;5114015;28;19923;-82
2022/08/11 05:11:29;;;;;;;5.90;5.30;;;16.60;99.90;;;;;;5114003;28;20483;-82
2022/08/11 05:37:27;;;;;;;8.13;5.70;;;16.80;99.90;;;;;;5117724;28;20471;-83
2022/08/11 05:57:07;;;;;;;8.13;5.90;;;17.10;99.90;;;;;;5117770;28;20087;-82
2022/08/11 05:59:33;;;;;;;7.57;5.95;;;17.20;99.90;;;;;;5118158;28;20084;-83
2022/08/11 06:02:04;;;;;;;8.02;5.55;;;17.30;99.90;;;;;;5099752;28;20047;-82
2022/08/11 06:04:31;;;;;;;7.18;5.45;;;17.40;99.90;;;;;;5116310;28;20531;-82
2022/08/11 06:07:02;;;;;;;;;;;17.50;99.90;;;;;;5116988;28;20089;-82
2022/08/11 06:09:31;;;;;;;7.35;5.70;;;17.60;99.90;;;;;;5117576;28;19919;-82
2022/08/11 06:12:01;;;;;;;7.45;5.82;;;17.70;99.90;;;;;;5117283;28;20039;-82
2022/08/11 06:14:28;;;;;;;8.25;5.70;;;17.90;99.90;;;;;;5116196;28;20176;-83
2022/08/11 06:17:00;;;;;;;6.10;4.88;;;18.00;99.90;;;;;;5117203;28;20043;-83
2022/08/11 06:19:40;;;;;;;8.20;5.53;;;18.10;99.90;;;;;;5116520;28;20044;-83
2022/08/11 06:22:10;;;;;;;7.25;5.20;;;18.40;99.90;;;;;;5099498;28;20036;-82
2022/08/11 06:24:40;;;;;;;7.70;4.55;;;18.60;99.90;;;;;;5116273;28;20055;-83
2022/08/11 06:27:06;;;;;;;8.43;5.25;;;18.70;99.90;;;;;;5116250;28;20050;-84
2022/08/11 06:29:40;;;;;;;10.07;5.22;;;18.90;99.90;;;;;;5115982;28;20394;-85
2022/08/11 06:32:11;;;;;;;8.05;4.85;;;19.10;99.90;;;;;;5099226;28;20456;-85
2022/08/11 06:34:51;;;;;;;7.22;4.60;;;19.30;99.90;;;;;;5116983;28;20101;-85
2022/08/11 06:37:45;;;;;;;5.75;3.70;;;19.60;99.90;;;;;;5116046;28;20042;-86
2022/08/11 06:40:33;;;;;;;7.13;4.00;;;19.70;99.90;;;;;;5115679;28;20506;-87
2022/08/11 06:43:20;;;;;;;10.02;4.57;;;19.90;99.90;;;;;;5115907;28;20047;-87
2022/08/11 06:46:06;;;;;;;6.35;3.67;;;20.10;99.90;;;;;;5098738;28;20035;-86
2022/08/11 06:48:33;;;;;;;5.50;3.90;;;20.30;99.90;;;;;;5098913;28;20055;-85
2022/08/11 06:51:12;;;;;;;7.15;4.03;;;20.40;99.90;;;;;;5115785;28;20148;-85
2022/08/11 06:53:57;;;;;;;6.15;3.80;;;20.70;99.90;;;;;;5116681;28;20364;-84
2022/08/11 07:02:09;;;;;;;4.93;3.33;;;21.20;99.90;;;;;;5115460;28;20047;-84
2022/08/11 07:05:02;;;;;;;5.32;3.10;;;21.40;99.90;;;;;;5098230;28;20043;-84
2022/08/11 07:16:34;;;;;;;6.93;3.15;;;22.00;99.90;;;;;;5115353;28;20047;-84
2022/08/11 07:30:25;;;;;;;9.98;2.42;;;22.80;99.90;;;;;;5115300;28;20052;-82
2022/08/11 07:32:54;;;;;;;;;;;22.90;99.90;;;;;;5115377;28;20075;-84
2022/08/11 07:35:31;;;;;;;12.57;2.75;;;23.00;99.90;;;;;;5114682;28;19919;-82
2022/08/11 07:37:59;;;;;;;;;;;23.20;99.90;;;;;;5116174;28;20039;-83
2022/08/11 07:40:26;;;;;;;8.20;2.47;;;23.30;99.90;;;;;;5115056;28;19920;-83
2022/08/11 07:42:54;;;;;;;4.70;1.83;;;23.50;99.90;;;;;;5114484;28;20058;-83
2022/08/11 07:53:38;;;;;;;3.60;1.40;;;23.90;99.90;;;;;;5114784;28;20048;-80
2022/08/11 07:56:06;;;;;;;7.03;1.90;;;24.20;99.90;;;;;;5115151;28;20066;-81
2022/08/11 08:17:59;;;;;;;5.57;1.70;;;25.20;99.90;;;;;;5115428;28;20423;-80
2022/08/11 08:20:46;;;;;;;3.05;1.42;;;25.30;99.90;;;;;;5114595;28;20533;-81
2022/08/11 08:23:12;;;;;;;4.85;1.70;;;25.50;99.60;;;;;;5114983;28;20044;-81
2022/08/11 08:25:40;;;;;;;4.70;1.58;;;25.60;99.30;;;;;;5114822;28;20051;-81
2022/08/11 08:28:10;;;;;;;5.30;1.55;;;25.80;98.90;;;;;;5114015;28;20483;-81
2022/08/11 08:30:49;;;;;;;4.07;1.40;;;26.00;98.40;;;;;;5114720;28;20054;-81
2022/08/11 08:33:30;;;;;;;21.88;2.15;;;26.00;98.30;;;;;;5114833;28;20046;-81
2022/08/11 08:36:10;;;;;;;5.50;1.40;;;26.10;97.00;;;;;;5114527;28;20046;-81
2022/08/11 08:38:51;;;;;;;4.75;1.60;;;26.30;97.50;;;;;;5115100;28;20044;-81
2022/08/11 08:41:21;;;;;;;2.63;1.30;;;26.40;96.40;;;;;;5114523;28;20059;-80
2022/08/11 08:43:52;;;;;;;5.50;1.35;;;26.40;96.20;;;;;;5114311;28;20157;-80
2022/08/11 08:46:32;;;;;;;3.80;1.90;;;26.40;95.90;;;;;;5114481;28;20050;-81
2022/08/11 08:49:01;;;;;;;3.72;1.20;;;26.60;96.30;;;;;;5113529;28;20040;-82
2022/08/11 08:51:34;;;;;;;5.93;1.63;;;26.70;95.80;;;;;;5114400;28;20055;-81
2022/08/11 08:54:04;;;;;;;5.22;1.30;;;26.80;95.80;;;;;;5114337;28;20524;-81
2022/08/11 08:56:33;;;;;;;3.58;1.23;;;27.00;94.70;;;;;;5113301;28;20039;-81
2022/08/11 08:59:01;;;;;;;3.42;1.27;;;27.00;94.30;;;;;;5114305;28;20190;-81
2022/08/11 09:01:39;;;;;;;9.77;1.45;;;27.10;94.00;;;;;;5113026;28;20047;-81
2022/08/11 09:04:08;;;;;;;13.20;2.22;;;27.20;93.20;;;;;;5114204;28;20131;-81
2022/08/11 09:06:42;;;;;;;14.38;1.55;;;27.30;92.30;;;;;;5114155;28;20082;-81
2022/08/11 09:09:10;;;;;;;6.82;1.48;;;27.40;92.40;;;;;;5114076;28;20383;-81
2022/08/11 09:11:49;;;;;;;6.60;1.50;;;27.50;92.50;;;;;;5114049;28;20054;-81
2022/08/11 09:17:22;;;;;;;5.28;1.40;;;27.70;90.00;;;;;;5114244;28;20055;-82
2022/08/11 09:19:59;;;;;;;3.70;1.25;;;27.70;90.10;;;;;;5112906;28;20198;-80
2022/08/11 09:28:03;;;;;;;4.80;1.15;;;27.90;87.50;;;;;;5113936;28;20055;-81
2022/08/11 09:30:30;;;;;;;3.80;1.15;;;28.00;89.00;;;;;;5113869;28;20047;-82
2022/08/11 09:33:00;;;;;;;3.03;1.00;;;28.10;88.60;;;;;;5113828;28;20047;-82
2022/08/11 09:35:32;;;;;;;9.93;1.48;;;28.20;88.90;;;;;;5113641;28;20043;-82
2022/08/11 09:40:46;;;;;;;4.05;1.10;;;28.50;86.80;;;;;;5113330;28;20064;-81
2022/08/11 09:46:00;;;;;;;3.47;1.33;;;28.60;86.00;;;;;;5113078;28;20090;-79
2022/08/11 09:48:29;;;;;;;3.13;1.00;;;28.60;85.50;;;;;;5113745;28;20073;-81
2022/08/11 09:50:58;;;;;;;5.03;1.27;;;28.70;85.10;;;;;;5113826;28;20039;-79
2022/08/11 09:53:26;;;;;;;3.00;1.10;;;28.70;85.70;;;;;;5113661;28;20048;-80
2022/08/11 09:55:52;;;;;;;2.70;1.00;;;28.90;83.40;;;;;;5113002;28;20042;-80
2022/08/11 09:58:18;;;;;;;2.00;1.15;;;28.90;83.20;;;;;;5113019;28;20046;-80
2022/08/11 10:00:48;;;;;;;4.45;1.40;;;29.00;82.90;;;;;;5110588;28;20036;-81
2022/08/11 10:03:21;;;;;;;3.67;1.17;;;29.10;82.80;;;;;;5113329;28;20043;-80
2022/08/11 10:08:39;;;;;;;7.00;1.42;;;29.30;81.90;;;;;;5113491;28;20438;-80
2022/08/11 10:11:08;;;;;;;4.45;1.20;;;29.40;81.50;;;;;;5113475;28;20391;-79
2022/08/11 10:15:32;;;;;;;3.65;1.20;;;29.50;80.60;;;;;;5113554;28;20047;-80
2022/08/11 10:16:26;;;;;;;4.07;1.02;;;29.60;80.80;;;;;;5113491;28;20126;-81
2022/08/11 10:18:54;;;;;;;5.35;1.15;;;29.70;80.10;;;;;;5112481;28;20497;-82
2022/08/11 10:21:36;;;;;;;4.32;1.10;;;29.70;79.60;;;;;;5114202;28;20051;-82
2022/08/11 10:26:53;;;;;;;4.97;1.23;;;29.70;79.80;;;;;;5116279;28;20130;-82
2022/08/11 10:34:54;;;;;;;3.38;1.02;;;29.80;78.20;;;;;;5116011;28;20043;-81
2022/08/11 10:37:23;;;;;;;3.53;1.10;;;29.80;78.10;;;;;;5116735;28;20097;-78
2022/08/11 10:39:50;;;;;;;4.93;1.20;;;29.80;77.60;;;;;;5115598;28;20099;-75
2022/08/11 10:47:33;;;;;;;3.20;1.27;;;30.10;77.60;;;;;;5116826;28;20047;-77
2022/08/11 10:47:50;;;;;;;2.25;1.05;;;30.10;77.90;;;;;;5116728;28;20054;-76
2022/08/11 10:58:45;;;;;;;3.85;1.00;;;30.10;77.80;;;;;;5117235;28;20138;-79
2022/08/11 11:01:13;;;;;;;2.92;0.95;;;30.10;77.10;;;;;;5115435;28;20043;-82
2022/08/11 11:03:39;;;;;;;3.78;1.13;;;30.20;76.80;;;;;;5116537;28;20070;-81
2022/08/11 11:06:08;;;;;;;4.35;1.17;;;30.30;76.60;;;;;;5116313;28;20044;-81
2022/08/11 11:11:15;;;;;;;2.78;1.13;;;30.40;75.90;;;;;;4900950;22;20098;-79
2022/08/11 11:19:18;;;;;;;2.33;1.00;;;30.40;74.70;;;;;;5035458;28;20049;-77
2022/08/11 11:21:48;;;;;;;3.58;1.00;;;30.50;75.50;;;;;;5035584;28;20085;-79
2022/08/11 11:24:40;;;;;;;3.30;0.90;;;30.60;75.50;;;;;;5035570;28;20124;-80
2022/08/11 11:27:19;;;;;;;2.53;1.20;;;30.70;74.90;;;;;;5035725;28;20538;-78
2022/08/11 11:30:09;;;;;;;3.30;1.20;;;30.80;73.80;;;;;;5035977;28;20041;-80
2022/08/11 11:32:34;;;;;;;1.90;0.93;;;30.80;73.10;;;;;;5034887;28;20526;-77
2022/08/11 11:35:25;;;;;;;1.30;0.83;;;30.70;74.40;;;;;;5035320;28;20037;-77
2022/08/11 11:37:52;;;;;;;2.40;1.10;;;30.80;75.00;;;;;;5035362;28;20124;-80
2022/08/11 11:40:20;;;;;;;4.38;1.00;;;30.90;75.60;;;;;;5035119;28;20051;-79
2022/08/11 11:42:47;;;;;;;4.32;1.10;;;31.00;74.10;;;;;;5035142;28;20466;-79
2022/08/11 11:45:16;;;;;;;2.72;1.10;;;31.10;74.50;;;;;;5034908;28;20485;-78
2022/08/11 11:47:43;;;;;;;2.60;0.93;;;31.00;72.50;;;;;;5033366;28;20120;-79
2022/08/11 11:50:10;;;;;;;3.53;1.10;;;31.10;74.50;;;;;;5034794;28;20399;-78
2022/08/11 11:52:36;;;;;;;3.08;1.00;;;31.10;73.80;;;;;;5035460;28;20049;-79
2022/08/11 11:55:04;;;;;;;4.50;1.02;;;31.20;73.90;;;;;;5035038;28;20042;-79
2022/08/11 12:03:04;;;;;;;3.03;0.90;;;31.10;73.00;;;;;;5035255;28;20451;-80
2022/08/11 12:05:33;;;;;;;4.50;1.35;;;31.20;72.20;;;;;;5034933;28;20465;-77
2022/08/11 12:08:15;;;;;;;2.40;0.95;;;31.10;71.60;;;;;;5033598;28;20041;-79
2022/08/11 12:13:43;;;;;;;1.98;0.93;;;31.30;71.10;;;;;;5034617;28;20045;-80
2022/08/11 12:16:12;;;;;;;5.32;0.90;;;31.50;71.50;;;;;;5034716;28;20068;-78
2022/08/11 12:18:40;;;;;;;5.35;1.05;;;31.60;71.40;;;;;;5034723;28;20057;-79
2022/08/11 12:21:07;;;;;;;3.08;1.10;;;31.70;70.80;;;;;;5034817;28;20045;-77
2022/08/11 12:29:10;;;;;;;4.47;1.00;;;31.70;71.00;;;;;;5035273;28;21161;-76
2022/08/11 12:31:37;;;;;;;1.42;0.80;;;31.80;70.50;;;;;;5034401;28;20034;-74
2022/08/11 12:34:13;;;;;;;2.80;1.00;;;31.80;70.50;;;;;;5034441;28;20504;-79
2022/08/11 12:36:49;;;;;;;3.05;0.90;;;31.70;69.20;;;;;;5034821;28;20045;-83
2022/08/11 12:39:19;;;;;;;3.42;0.90;;;31.80;68.20;;;;;;5034221;28;20038;-81
2022/08/11 12:47:18;;;;;;;2.83;0.80;;;31.80;69.40;;;;;;5034184;28;20068;-78
2022/08/11 12:52:42;;;;;;;2.40;0.98;;;32.00;69.40;;;;;;5034492;28;20136;-78
2022/08/11 12:58:17;;;;;;;1.48;0.80;;;31.90;66.40;;;;;;5034245;28;20061;-78
2022/08/11 13:06:21;;;;;;;1.35;0.80;;;32.00;67.10;;;;;;5034063;28;20049;-78
2022/08/11 13:08:48;;;;;;;2.90;0.85;;;32.10;67.70;;;;;;5033880;28;20056;-78
2022/08/11 13:14:00;;;;;;;3.90;0.70;;;32.10;67.20;;;;;;5033829;28;20057;-78
2022/08/11 13:19:20;;;;;;;5.88;1.00;;;32.20;65.50;;;;;;5034643;28;20061;-79
2022/08/11 13:21:50;;;;;;;2.78;0.90;;;32.20;67.30;;;;;;5033714;28;20049;-78
2022/08/11 13:24:17;;;;;;;1.70;1.02;;;32.30;66.90;;;;;;5033886;28;20081;-78
2022/08/11 13:26:44;;;;;;;2.17;0.80;;;32.20;66.40;;;;;;5033690;28;20064;-79
2022/08/11 13:29:10;;;;;;;1.60;0.80;;;32.10;66.10;;;;;;5033851;28;20053;-78
2022/08/11 13:31:36;;;;;;;3.33;0.80;;;32.00;65.80;;;;;;5033683;28;20107;-78
2022/08/11 13:34:07;;;;;;;;;;;32.10;66.30;;;;;;5034463;28;20137;-78
2022/08/11 13:36:34;;;;;;;2.60;0.88;;;32.20;65.50;;;;;;5033677;28;19986;-78
2022/08/11 13:39:01;;;;;;;1.60;0.80;;;32.20;65.90;;;;;;5033483;28;20079;-78
2022/08/11 13:41:43;;;;;;;2.28;0.80;;;32.20;65.90;;;;;;5033403;28;20045;-78
2022/08/11 13:44:12;;;;;;;0.95;0.70;;;32.20;66.00;;;;;;5032554;28;20060;-78
2022/08/11 13:46:39;;;;;;;3.40;0.80;;;32.30;66.30;;;;;;5033867;28;20052;-78
2022/08/11 13:49:07;;;;;;;1.80;0.70;;;32.50;66.70;;;;;;5032569;28;20045;-79
2022/08/11 13:51:36;;;;;;;1.50;0.80;;;32.50;65.60;;;;;;5033539;28;20045;-79
2022/08/11 13:54:06;;;;;;;1.65;0.63;;;32.40;65.00;;;;;;5033490;28;20065;-78
2022/08/11 13:56:34;;;;;;;3.08;0.70;;;32.50;65.60;;;;;;5034504;28;20154;-78
2022/08/11 13:59:01;;;;;;;2.15;0.90;;;32.50;65.50;;;;;;5037746;28;20048;-78
2022/08/11 14:01:32;;;;;;;3.45;1.02;;;32.60;65.80;;;;;;5037400;28;20408;-78
2022/08/11 14:04:13;;;;;;;4.40;0.90;;;32.60;64.20;;;;;;5037328;28;20048;-78
2022/08/11 14:06:47;;;;;;;4.50;0.90;;;32.70;65.00;;;;;;5037526;28;20053;-78
2022/08/11 14:09:17;;;;;;;2.13;0.90;;;32.80;64.10;;;;;;5036019;28;20055;-78
2022/08/11 14:14:32;;;;;;;1.30;0.70;;;32.60;65.30;;;;;;5037182;28;20060;-78
2022/08/11 14:17:03;;;;;;;4.70;1.08;;;32.50;64.00;;;;;;5037184;28;20049;-78
2022/08/11 14:19:34;;;;;;;4.15;0.82;;;32.50;64.40;;;;;;5037187;28;20049;-78
2022/08/11 14:22:07;;;;;;;3.28;1.00;;;32.50;65.00;;;;;;5036199;28;20038;-78
2022/08/11 14:24:48;;;;;;;3.80;0.65;;;32.50;66.10;;;;;;5036800;28;20048;-78
2022/08/11 14:27:15;;;;;;;4.47;1.00;;;32.50;65.60;;;;;;5036359;28;20045;-77
2022/08/11 14:29:41;;;;;;;3.47;0.70;;;32.50;64.80;;;;;;5036992;28;20053;-78
2022/08/11 14:32:12;;;;;;;4.75;1.00;;;32.60;65.10;;;;;;5036250;28;20047;-78
2022/08/11 14:34:40;;;;;;;5.28;0.80;;;32.60;64.50;;;;;;5036863;28;20041;-79
2022/08/11 14:37:12;;;;;;;1.25;0.70;;;32.60;64.20;;;;;;5036637;28;20045;-77
2022/08/11 14:39:44;;;;;;;1.95;1.02;;;32.60;64.70;;;;;;5036558;28;20043;-77
2022/08/11 14:47:54;;;;;;;4.03;0.85;;;32.70;65.20;;;;;;5036455;28;20053;-79
2022/08/11 14:50:25;;;;;;;2.92;0.80;;;32.60;64.30;;;;;;5036322;28;20098;-80
2022/08/11 14:53:23;;;;;;;2.92;0.93;;;32.60;64.00;;;;;;5036326;28;20053;-78
2022/08/11 14:58:36;;;;;;;2.38;0.85;;;32.60;65.60;;;;;;5036578;28;20057;-80
2022/08/11 15:03:05;;;;;;;3.13;1.08;;;32.70;65.70;;;;;;5036343;28;20439;-80
2022/08/11 15:03:51;;;;;;;1.35;0.80;;;32.70;64.80;;;;;;5036717;28;20060;-79
2022/08/11 15:06:17;;;;;;;2.33;0.85;;;32.70;64.40;;;;;;5036029;28;20053;-80
2022/08/11 15:08:55;;;;;;;2.28;0.82;;;32.70;64.40;;;;;;5035781;28;20049;-79
2022/08/11 15:14:12;;;;;;;1.50;0.73;;;32.60;63.90;;;;;;5035833;28;20135;-81
2022/08/11 15:19:30;;;;;;;2.67;0.90;;;32.50;65.60;;;;;;5021415;28;20088;-80
2022/08/11 15:24:40;;;;;;;5.20;1.10;;;32.30;66.20;;;;;;5035959;28;20137;-80
2022/08/11 15:38:48;;;;;;;4.45;1.00;;;32.30;67.40;;;;;;5004072;28;20053;-81
2022/08/11 15:46:53;;;;;;;2.90;1.00;;;32.20;67.80;;;;;;5036252;28;20065;-78
2022/08/11 15:49:27;;;;;;;3.13;0.90;;;32.20;67.10;;;;;;5035332;28;20064;-78
2022/08/11 15:52:12;;;;;;;3.08;0.90;;;32.20;68.40;;;;;;5035349;28;20050;-77
2022/08/11 15:54:43;;;;;;;2.33;1.10;;;32.10;67.10;;;;;;5035157;28;20504;-79
2022/08/11 16:04:09;;;;;;;3.25;0.90;;;32.00;67.50;;;;;;5035051;28;20053;-78
2022/08/11 16:05:16;;;;;;;3.20;0.90;;;31.80;67.80;;;;;;5035387;28;20049;-84
2022/08/11 16:07:47;;;;;;;4.78;0.90;;;31.70;67.90;;;;;;5017960;28;20081;-85
2022/08/11 16:10:20;;;;;;;2.20;1.00;;;31.70;69.80;;;;;;5033890;28;20079;-82
2022/08/11 16:18:39;;;;;;;5.38;1.35;;;31.40;69.30;;;;;;5034805;28;20084;-81
2022/08/11 16:21:18;;;;;;;4.03;1.10;;;31.30;69.40;;;;;;5018836;28;20047;-80
2022/08/11 16:23:47;;;;;;;2.03;0.98;;;31.30;70.40;;;;;;5034003;28;20049;-80
2022/08/11 16:26:21;;;;;;;2.35;0.90;;;31.20;70.10;;;;;;5034576;28;20455;-81
2022/08/11 16:28:50;;;;;;;6.18;1.23;;;31.20;69.90;;;;;;5034593;28;20056;-80
2022/08/11 16:31:18;;;;;;;5.30;1.17;;;31.20;69.90;;;;;;5034469;28;20072;-81
2022/08/11 16:33:45;;;;;;;2.85;0.90;;;31.20;70.10;;;;;;5034420;28;20132;-80
2022/08/11 16:38:58;;;;;;;2.63;0.90;;;31.10;70.50;;;;;;5034483;28;20053;-82
2022/08/11 16:47:00;;;;;;;5.68;1.10;;;30.90;70.70;;;;;;5033404;28;20061;-81
2022/08/11 16:49:32;;;;;;;3.80;1.05;;;31.00;70.60;;;;;;5016760;28;20049;-80
2022/08/11 16:52:02;;;;;;;3.33;1.02;;;30.90;70.50;;;;;;5016625;28;20049;-80
2022/08/11 16:54:32;;;;;;;4.38;0.90;;;30.80;70.20;;;;;;5034058;28;20480;-80
2022/08/11 16:59:12;;;;;;;2.45;1.00;;;30.80;70.80;;;;;;5034367;28;20081;-79
2022/08/11 16:59:48;;;;;;;3.88;1.20;;;30.70;71.10;;;;;;5034597;28;20401;-81
2022/08/11 17:13:41;;;;;;;;;;;30.30;70.20;;;;;;5034195;28;19921;-80
2022/08/11 17:16:11;;;;;;;4.18;1.20;;;30.20;70.10;;;;;;5032919;28;20019;-80
2022/08/11 17:18:44;;;;;;;4.13;1.30;;;30.20;71.40;;;;;;5033576;28;20053;-77
2022/08/11 17:21:17;;;;;;;3.92;1.20;;;30.10;70.90;;;;;;5033711;28;20037;-79
2022/08/11 17:23:50;;;;;;;3.10;1.10;;;29.90;70.80;;;;;;5032206;28;20056;-81
2022/08/11 17:26:56;;;;;;;5.18;1.40;;;29.90;72.10;;;;;;5032954;28;20041;-81
2022/08/11 17:29:41;;;;;;;3.35;1.30;;;29.90;71.60;;;;;;5033526;28;20076;-79
2022/08/11 17:37:48;;;;;;;3.42;1.20;;;29.60;71.10;;;;;;5033949;28;20392;-79
2022/08/11 17:40:17;;;;;;;3.25;1.10;;;29.50;72.70;;;;;;5033153;28;20046;-79
2022/08/11 17:48:24;;;;;;;4.20;1.23;;;29.30;72.20;;;;;;5033398;28;20049;-76
2022/08/11 17:51:03;;;;;;;3.58;1.27;;;29.20;71.80;;;;;;5032383;28;20046;-77
2022/08/11 18:01:51;;;;;;;7.88;1.20;;;28.90;72.00;;;;;;5033730;28;20058;-82
2022/08/11 18:04:19;;;;;;;4.53;1.25;;;28.80;71.90;;;;;;5033541;28;20045;-81
2022/08/11 18:06:48;;;;;;;4.20;1.25;;;28.80;72.30;;;;;;5032277;28;20167;-80
